createdAt,value
2018-01-05T00:01:50.914Z,80.50
2018-01-05T00:04:18.401Z,81.00
2018-01-05T00:06:45.911Z,80.90
2018-01-05T00:09:13.392Z,81.60
2018-01-05T00:11:43.857Z,81.30
2018-01-05T00:14:11.347Z,80.80
2018-01-05T00:16:38.854Z,80.40
2018-01-05T00:19:06.376Z,80.40
2018-01-05T00:21:34.622Z,81.10
2018-01-05T00:24:02.102Z,81.00
2018-01-05T00:26:29.602Z,80.90
2018-01-05T00:28:57.076Z,80.80
2018-01-05T00:31:24.592Z,80.90
2018-01-05T00:33:52.846Z,81.10
2018-01-05T00:36:20.337Z,81.00
2018-01-05T00:38:47.822Z,81.30
2018-01-05T00:41:15.310Z,81.80
2018-01-05T00:43:43.332Z,81.20
2018-01-05T00:46:10.819Z,81.30
2018-01-05T00:48:38.303Z,81.00
2018-01-05T00:51:05.806Z,80.60
2018-01-05T00:53:33.286Z,81.10
2018-01-05T00:56:00.783Z,80.90
2018-01-05T00:58:28.298Z,81.00
2018-01-05T01:00:55.779Z,81.20
2018-01-05T01:03:23.276Z,81.40
2018-01-05T01:05:51.515Z,82.30
2018-01-05T01:08:19.035Z,82.30
2018-01-05T01:10:46.491Z,82.20
2018-01-05T01:13:13.992Z,82.70
2018-01-05T01:15:41.459Z,82.70
2018-01-05T01:18:08.968Z,83.20
2018-01-05T01:20:36.459Z,83.60
2018-01-05T01:23:04.698Z,83.90
2018-01-05T01:25:32.175Z,83.90
2018-01-05T01:27:59.643Z,83.80
2018-01-05T01:30:27.110Z,83.70
2018-01-05T01:32:54.614Z,84.00
2018-01-05T01:35:22.105Z,83.90
2018-01-05T01:37:49.582Z,84.20
2018-01-05T01:40:17.059Z,84.40
2018-01-05T01:42:45.308Z,84.60
2018-01-05T01:45:12.798Z,84.50
2018-01-05T01:47:40.288Z,84.60
2018-01-05T01:50:07.772Z,84.70
2018-01-05T01:52:35.234Z,84.70
2018-01-05T01:55:02.726Z,84.70
2018-01-05T01:57:31.061Z,85.50
2018-01-05T01:59:58.523Z,85.40
2018-01-05T02:02:26.023Z,85.70
2018-01-05T02:04:53.496Z,85.90
2018-01-05T02:07:20.994Z,85.70
2018-01-05T02:09:48.487Z,85.70
2018-01-05T02:12:15.987Z,85.70
2018-01-05T02:14:43.470Z,85.90
2018-01-05T02:17:10.964Z,86.10
2018-01-05T02:19:39.231Z,86.00
2018-01-05T02:22:07.519Z,85.80
2018-01-05T02:24:35.748Z,86.00
2018-01-05T02:27:03.248Z,85.80
2018-01-05T02:29:31.479Z,86.10
2018-01-05T02:31:58.961Z,85.90
2018-01-05T02:34:26.445Z,86.10
2018-01-05T02:36:53.932Z,86.00
2018-01-05T02:39:21.416Z,86.00
2018-01-05T02:41:48.896Z,86.00
2018-01-05T02:44:16.399Z,85.90
2018-01-05T02:46:43.881Z,86.00
2018-01-05T02:49:11.351Z,86.30
2018-01-05T02:51:38.850Z,86.20
2018-01-05T02:54:06.322Z,86.70
2018-01-05T02:56:34.564Z,87.10
2018-01-05T02:59:02.822Z,87.60
2018-01-05T03:01:30.283Z,87.50
2018-01-05T03:03:57.764Z,87.70
2018-01-05T03:06:25.229Z,87.90
2018-01-05T03:08:53.064Z,88.00
2018-01-05T03:11:20.775Z,88.20
2018-01-05T03:13:48.474Z,88.70
2018-01-05T03:16:15.996Z,89.10
2018-01-05T03:18:43.467Z,89.30
2018-01-05T03:21:10.938Z,90.00
2018-01-05T03:23:38.444Z,90.30
2018-01-05T03:26:06.683Z,90.80
2018-01-05T03:28:34.154Z,90.80
2018-01-05T03:31:02.407Z,91.10
2018-01-05T03:33:29.883Z,91.00
2018-01-05T03:35:57.389Z,91.20
2018-01-05T03:38:24.880Z,91.10
2018-01-05T03:40:52.405Z,91.10
2018-01-05T03:43:19.875Z,91.30
2018-01-05T03:45:47.360Z,91.50
2018-01-05T03:48:14.856Z,91.50
2018-01-05T03:50:42.330Z,91.80
2018-01-05T03:53:09.837Z,91.80
2018-01-05T03:55:37.327Z,92.10
2018-01-05T03:58:05.643Z,92.00
2018-01-05T04:00:33.123Z,92.20
2018-01-05T04:03:00.597Z,92.30
2018-01-05T04:05:28.072Z,92.50
2018-01-05T04:07:56.310Z,92.90
2018-01-05T04:10:23.784Z,92.90
2018-01-05T04:12:51.275Z,93.10
2018-01-05T04:15:18.736Z,93.40
2018-01-05T04:17:46.224Z,93.80
2018-01-05T04:20:13.688Z,94.20
2018-01-05T04:22:41.155Z,94.70
2018-01-05T04:25:08.634Z,95.00
2018-01-05T04:27:36.111Z,95.20
2018-01-05T04:30:03.626Z,95.50
2018-01-05T04:32:31.110Z,96.20
2018-01-05T04:34:59.337Z,96.30
2018-01-05T04:37:26.811Z,96.30
2018-01-05T04:39:54.281Z,96.50
2018-01-05T04:42:21.765Z,96.60
2018-01-05T04:44:50.018Z,96.80
2018-01-05T04:47:17.487Z,96.80
2018-01-05T04:49:45.736Z,97.20
2018-01-05T04:52:13.217Z,96.90
2018-01-05T04:54:41.475Z,97.00
2018-01-05T04:57:08.950Z,96.90
2018-01-05T04:59:37.192Z,97.30
2018-01-05T05:02:04.669Z,97.00
2018-01-05T05:04:32.245Z,97.00
2018-01-05T05:07:00.504Z,97.10
2018-01-05T05:09:27.977Z,97.00
2018-01-05T05:11:56.208Z,97.00
2018-01-05T05:14:23.688Z,97.00
2018-01-05T05:16:51.167Z,97.00
2018-01-05T05:19:18.681Z,97.10
2018-01-05T05:21:46.168Z,97.10
2018-01-05T05:24:13.626Z,97.20
2018-01-05T05:26:41.103Z,97.20
2018-01-05T05:29:09.356Z,97.40
2018-01-05T05:31:36.852Z,97.40
2018-01-05T05:34:04.342Z,97.40
2018-01-05T05:36:31.813Z,97.50
2018-01-05T05:38:59.297Z,97.70
2018-01-05T05:41:27.539Z,97.80
2018-01-05T05:43:55.045Z,97.80
2018-01-05T05:46:22.523Z,97.90
2018-01-05T05:48:50.027Z,98.00
2018-01-05T05:51:17.516Z,98.20
2018-01-05T05:53:45.768Z,98.20
2018-01-05T05:56:13.235Z,98.20
2018-01-05T05:58:41.497Z,98.20
2018-01-05T06:01:08.968Z,98.20
2018-01-05T06:03:37.241Z,98.30
2018-01-05T06:06:04.720Z,98.30
2018-01-05T06:08:32.200Z,98.30
2018-01-05T06:10:59.684Z,98.20
2018-01-05T06:13:27.145Z,98.20
2018-01-05T06:15:54.648Z,98.30
2018-01-05T06:18:22.113Z,98.30
2018-01-05T06:20:49.584Z,98.50
2018-01-05T06:23:17.093Z,98.70
2018-01-05T06:25:44.568Z,98.40
2018-01-05T06:28:12.824Z,98.30
2018-01-05T06:30:40.306Z,98.30
2018-01-05T06:33:08.542Z,98.40
2018-01-05T06:35:36.512Z,98.30
2018-01-05T06:38:03.986Z,98.40
2018-01-05T06:40:31.483Z,98.40
2018-01-05T06:42:58.989Z,98.40
2018-01-05T06:45:26.457Z,98.40
2018-01-05T06:47:53.947Z,98.40
2018-01-05T06:50:21.424Z,98.40
2018-01-05T06:52:48.908Z,98.30
2018-01-05T06:55:16.408Z,98.30
2018-01-05T06:57:44.638Z,98.30
2018-01-05T07:00:12.134Z,98.30
2018-01-05T07:02:40.381Z,98.30
2018-01-05T07:05:07.873Z,98.30
2018-01-05T07:07:36.115Z,98.30
2018-01-05T07:10:03.592Z,98.20
2018-01-05T07:12:31.098Z,98.20
2018-01-05T07:14:58.583Z,98.20
2018-01-05T07:17:26.060Z,98.20
2018-01-05T07:19:53.534Z,98.20
2018-01-05T07:22:21.012Z,98.20
2018-01-05T07:24:48.508Z,98.20
2018-01-05T07:27:16.001Z,98.30
2018-01-05T07:29:44.258Z,98.20
2018-01-05T07:32:11.744Z,98.30
2018-01-05T07:34:39.996Z,98.30
2018-01-05T07:37:07.484Z,98.30
2018-01-05T07:39:34.966Z,98.30
2018-01-05T07:42:02.453Z,98.60
2018-01-05T07:44:29.909Z,98.30
2018-01-05T07:46:57.385Z,98.30
2018-01-05T07:49:27.244Z,98.70
2018-01-05T07:51:54.731Z,98.40
2018-01-05T07:54:22.198Z,98.30
2018-01-05T07:56:49.663Z,98.30
2018-01-05T07:59:17.156Z,98.20
2018-01-05T08:01:45.623Z,98.40
2018-01-05T08:04:13.896Z,98.40
2018-01-05T08:06:42.139Z,98.30
2018-01-05T08:09:09.610Z,98.40
2018-01-05T08:11:37.088Z,98.40
2018-01-05T08:14:05.323Z,98.30
2018-01-05T08:16:32.798Z,98.30
2018-01-05T08:19:00.289Z,98.40
2018-01-05T08:21:28.539Z,98.20
2018-01-05T08:23:56.772Z,98.10
2018-01-05T08:26:24.259Z,98.20
2018-01-05T08:28:51.727Z,98.20
2018-01-05T08:31:19.188Z,98.20
2018-01-05T08:33:46.672Z,98.40
2018-01-05T08:36:14.140Z,98.50
2018-01-05T08:38:41.626Z,98.50
2018-01-05T08:41:15.251Z,98.40
2018-01-05T08:43:42.775Z,97.30
2018-01-05T08:46:10.287Z,97.40
2018-01-05T08:48:38.532Z,97.30
2018-01-05T08:51:06.771Z,97.30
2018-01-05T08:53:34.277Z,97.30
2018-01-05T08:56:01.761Z,97.20
2018-01-05T08:58:30.022Z,97.20
2018-01-05T09:00:58.264Z,97.30
2018-01-05T09:03:25.742Z,97.30
2018-01-05T09:05:53.248Z,97.10
2018-01-05T09:08:21.532Z,97.30
2018-01-05T09:10:49.049Z,97.20
2018-01-05T09:13:16.541Z,97.10
2018-01-05T09:15:44.050Z,96.90
2018-01-05T09:18:11.512Z,97.00
2018-01-05T09:20:38.998Z,97.10
2018-01-05T09:23:06.511Z,97.10
2018-01-05T09:25:34.004Z,97.10
2018-01-05T09:28:02.257Z,97.40
2018-01-05T09:30:29.708Z,97.40
2018-01-05T09:32:57.188Z,97.50
2018-01-05T09:35:25.453Z,97.80
2018-01-05T09:37:52.925Z,97.40
2018-01-05T09:40:20.413Z,97.60
2018-01-05T09:42:47.907Z,97.50
2018-01-05T09:45:15.392Z,97.50
2018-01-05T09:47:42.939Z,97.50
2018-01-05T09:50:10.439Z,97.30
2018-01-05T09:52:37.897Z,97.10
2018-01-05T09:55:05.458Z,97.40
2018-01-05T09:57:32.942Z,97.10
2018-01-05T10:00:00.480Z,97.00
2018-01-05T10:02:27.980Z,96.90
2018-01-05T10:04:56.638Z,96.50
2018-01-05T10:07:24.157Z,96.40
2018-01-05T10:09:51.654Z,96.30
2018-01-05T10:12:20.984Z,96.50
2018-01-05T10:14:48.468Z,96.40
2018-01-05T10:17:16.921Z,96.40
2018-01-05T10:19:44.469Z,96.40
2018-01-05T10:22:11.956Z,96.50
2018-01-05T10:24:41.458Z,96.80
2018-01-05T10:27:09.752Z,97.00
2018-01-05T10:29:37.268Z,96.90
2018-01-05T10:32:04.739Z,96.90
2018-01-05T10:34:32.221Z,97.10
2018-01-05T10:37:00.497Z,97.60
2018-01-05T10:39:27.958Z,97.60
2018-01-05T10:41:55.525Z,97.80
2018-01-05T10:44:23.003Z,97.90
2018-01-05T10:46:50.493Z,98.00
2018-01-05T10:49:17.999Z,98.20
2018-01-05T10:51:45.490Z,97.80
2018-01-05T10:54:13.031Z,98.00
2018-01-05T10:56:40.492Z,97.70
2018-01-05T10:59:07.997Z,97.80
2018-01-05T11:01:35.594Z,97.80
2018-01-05T11:04:03.074Z,97.70
2018-01-05T11:06:30.581Z,97.70
2018-01-05T11:08:58.052Z,96.90
2018-01-05T11:11:25.545Z,96.70
2018-01-05T11:13:53.506Z,96.80
2018-01-05T11:16:20.980Z,96.90
2018-01-05T11:18:49.526Z,96.60
2018-01-05T11:21:16.997Z,96.00
2018-01-05T11:23:44.484Z,96.40
2018-01-05T11:26:11.955Z,96.20
2018-01-05T11:28:39.441Z,95.90
2018-01-05T11:31:07.707Z,95.80
2018-01-05T11:33:35.962Z,95.60
2018-01-05T11:36:03.471Z,95.60
2018-01-05T11:38:30.958Z,95.80
2018-01-05T11:40:58.439Z,95.70
2018-01-05T11:43:25.951Z,95.70
2018-01-05T11:45:53.461Z,95.60
2018-01-05T11:48:21.799Z,95.50
2018-01-05T11:50:49.296Z,95.40
2018-01-05T11:53:16.763Z,95.10
2018-01-05T11:55:45.005Z,95.30
2018-01-05T11:58:12.476Z,95.30
2018-01-05T12:00:39.963Z,94.60
2018-01-05T12:03:07.451Z,94.40
2018-01-05T12:05:34.940Z,94.60
2018-01-05T12:08:02.428Z,94.90
2018-01-05T12:10:30.663Z,95.10
2018-01-05T12:12:58.177Z,95.10
2018-01-05T12:15:25.666Z,94.90
2018-01-05T12:17:53.185Z,94.70
2018-01-05T12:20:20.698Z,94.80
2018-01-05T12:22:48.195Z,94.70
2018-01-05T12:25:15.659Z,94.70
2018-01-05T12:27:43.229Z,94.40
2018-01-05T12:30:10.841Z,94.50
2018-01-05T12:32:38.347Z,94.10
2018-01-05T12:35:05.844Z,94.30
2018-01-05T12:37:33.321Z,94.30
2018-01-05T12:40:00.808Z,94.20
2018-01-05T12:42:28.292Z,93.30
2018-01-05T12:44:55.775Z,94.10
2018-01-05T12:47:23.259Z,94.40
2018-01-05T12:49:50.730Z,94.70
2018-01-05T12:52:18.227Z,94.70
2018-01-05T12:54:45.730Z,94.80
2018-01-05T12:57:13.230Z,94.20
2018-01-05T12:59:40.697Z,94.20
2018-01-05T13:02:08.177Z,94.40
2018-01-05T13:04:35.678Z,94.20
2018-01-05T13:07:03.157Z,94.20
2018-01-05T13:09:30.666Z,94.50
2018-01-05T13:11:58.155Z,94.70
2018-01-05T13:14:26.384Z,94.80
2018-01-05T13:16:53.916Z,94.70
2018-01-05T13:19:21.412Z,94.80
2018-01-05T13:21:49.161Z,94.60
2018-01-05T13:24:16.639Z,94.70
2018-01-05T13:26:44.110Z,94.70
2018-01-05T13:29:12.369Z,94.50
2018-01-05T13:31:39.855Z,94.50
2018-01-05T13:34:08.107Z,94.60
2018-01-05T13:36:35.581Z,94.60
2018-01-05T13:39:03.843Z,94.80
2018-01-05T13:41:31.324Z,94.80
2018-01-05T13:43:58.801Z,94.80
2018-01-05T13:46:26.294Z,94.60
2018-01-05T13:48:53.781Z,94.80
2018-01-05T13:51:21.259Z,95.10
2018-01-05T13:53:48.758Z,95.30
2018-01-05T13:56:16.226Z,95.30
2018-01-05T13:58:43.783Z,95.50
2018-01-05T14:01:11.285Z,95.50
2018-01-05T14:03:38.767Z,95.40
2018-01-05T14:06:06.267Z,95.60
2018-01-05T14:08:33.819Z,95.70
2018-01-05T14:11:01.279Z,95.20
2018-01-05T14:13:28.811Z,95.90
2018-01-05T14:15:56.314Z,96.20
2018-01-05T14:18:24.585Z,96.80
2018-01-05T14:20:52.062Z,96.70
2018-01-05T14:23:20.308Z,96.90
2018-01-05T14:25:47.782Z,96.90
2018-01-05T14:28:15.275Z,96.90
2018-01-05T14:30:42.778Z,97.00
2018-01-05T14:33:10.297Z,97.00
2018-01-05T14:35:37.807Z,96.90
2018-01-05T14:38:06.074Z,97.10
2018-01-05T14:40:33.539Z,97.00
2018-01-05T14:43:01.052Z,96.90
2018-01-05T14:45:28.520Z,97.10
2018-01-05T14:47:56.019Z,97.40
2018-01-05T14:50:23.535Z,97.40
2018-01-05T14:52:51.022Z,97.40
2018-01-05T14:55:18.535Z,97.30
2018-01-05T14:57:46.002Z,97.00
2018-01-05T15:00:13.499Z,96.90
2018-01-05T15:02:40.967Z,97.10
2018-01-05T15:05:09.216Z,97.10
2018-01-05T15:07:36.686Z,97.10
2018-01-05T15:10:04.164Z,97.00
2018-01-05T15:12:32.448Z,96.90
2018-01-05T15:14:59.960Z,96.90
2018-01-05T15:17:27.459Z,96.70
2018-01-05T15:19:55.760Z,96.90
2018-01-05T15:22:23.318Z,96.90
2018-01-05T15:24:50.846Z,96.80
2018-01-05T15:27:18.342Z,96.70
2018-01-05T15:29:45.814Z,96.80
2018-01-05T15:32:13.340Z,96.70
2018-01-05T15:34:40.836Z,96.70
2018-01-05T15:37:08.339Z,96.40
2018-01-05T15:39:36.590Z,96.40
2018-01-05T15:42:04.094Z,96.40
2018-01-05T15:44:31.603Z,96.40
2018-01-05T15:46:59.148Z,96.40
2018-01-05T15:49:26.647Z,96.40
2018-01-05T15:51:54.912Z,96.50
2018-01-05T15:54:23.180Z,96.60
2018-01-05T15:56:50.695Z,96.50
2018-01-05T15:59:18.176Z,96.60
2018-01-05T16:01:45.691Z,96.60
2018-01-05T16:04:13.182Z,96.70
2018-01-05T16:06:40.736Z,96.70
2018-01-05T16:09:08.242Z,96.70
2018-01-05T16:11:36.498Z,96.70
2018-01-05T16:14:04.003Z,96.70
2018-01-05T16:16:31.548Z,96.70
2018-01-05T16:18:59.028Z,96.70
2018-01-05T16:21:26.554Z,96.70
2018-01-05T16:23:54.802Z,96.80
2018-01-05T16:26:22.334Z,96.70
2018-01-05T16:28:49.804Z,96.70
2018-01-05T16:31:17.315Z,96.70
2018-01-05T16:33:44.812Z,96.60
2018-01-05T16:36:12.276Z,96.60
2018-01-05T16:38:39.772Z,96.40
2018-01-05T16:41:07.275Z,96.30
2018-01-05T16:43:34.765Z,96.40
2018-01-05T16:46:03.033Z,96.40
2018-01-05T16:48:30.498Z,96.30
2018-01-05T16:50:58.018Z,96.40
2018-01-05T16:53:25.529Z,96.20
2018-01-05T16:55:53.787Z,96.20
2018-01-05T16:58:21.310Z,96.20
2018-01-05T17:00:48.822Z,96.20
2018-01-05T17:03:17.068Z,96.20
2018-01-05T17:05:44.555Z,96.20
2018-01-05T17:08:12.803Z,96.00
2018-01-05T17:10:40.355Z,96.30
2018-01-05T17:13:07.841Z,95.90
2018-01-05T17:15:35.351Z,96.00
2018-01-05T17:18:02.838Z,95.90
2018-01-05T17:20:30.315Z,95.80
2018-01-05T17:23:04.974Z,95.70
2018-01-05T17:25:32.467Z,95.70
2018-01-05T17:27:59.980Z,95.60
2018-01-05T17:30:27.483Z,95.40
2018-01-05T17:32:55.052Z,95.40
2018-01-05T17:35:22.514Z,95.40
2018-01-05T17:37:50.033Z,95.30
2018-01-05T17:40:17.600Z,95.10
2018-01-05T17:42:47.708Z,95.10
2018-01-05T17:45:15.239Z,95.00
2018-01-05T17:47:42.771Z,94.90
2018-01-05T17:50:10.242Z,94.90
2018-01-05T17:52:38.510Z,95.20
2018-01-05T17:55:05.975Z,95.10
2018-01-05T17:57:34.285Z,95.10
2018-01-05T18:00:01.778Z,95.10
2018-01-05T18:02:29.258Z,95.20
2018-01-05T18:04:56.786Z,95.30
2018-01-05T18:07:24.268Z,95.30
2018-01-05T18:09:51.783Z,95.30
2018-01-05T18:12:19.289Z,95.40
2018-01-05T18:14:46.827Z,95.40
2018-01-05T18:17:14.338Z,95.40
2018-01-05T18:19:41.842Z,95.40
2018-01-05T18:22:09.346Z,95.40
2018-01-05T18:24:37.616Z,95.40
2018-01-05T18:27:09.632Z,95.50
2018-01-05T18:29:37.122Z,95.50
2018-01-05T18:32:04.609Z,95.40
2018-01-05T18:34:32.128Z,95.40
2018-01-05T18:36:59.593Z,95.40
2018-01-05T18:39:27.134Z,95.40
2018-01-05T18:41:54.651Z,95.30
2018-01-05T18:44:22.160Z,95.40
2018-01-05T18:46:49.716Z,95.20
2018-01-05T18:49:17.246Z,95.20
2018-01-05T18:51:44.790Z,95.10
2018-01-05T18:54:12.286Z,95.10
2018-01-05T18:56:39.825Z,95.00
2018-01-05T18:59:07.341Z,95.00
2018-01-05T19:01:35.608Z,94.90
2018-01-05T19:04:03.879Z,95.00
2018-01-05T19:06:32.170Z,95.10
2018-01-05T19:09:00.403Z,95.10
2018-01-05T19:11:27.921Z,95.10
2018-01-05T19:13:55.415Z,95.10
2018-01-05T19:16:22.917Z,95.10
2018-01-05T19:18:50.414Z,95.10
2018-01-05T19:21:17.920Z,95.20
2018-01-05T19:23:46.172Z,95.20
2018-01-05T19:26:13.688Z,95.20
2018-01-05T19:28:41.192Z,94.40
2018-01-05T19:31:08.661Z,95.20
2018-01-05T19:33:36.145Z,95.20
2018-01-05T19:36:03.654Z,95.30
2018-01-05T19:38:31.161Z,95.40
2018-01-05T19:40:58.661Z,95.30
2018-01-05T19:43:26.145Z,95.00
2018-01-05T19:45:53.699Z,95.20
2018-01-05T19:48:21.247Z,95.20
2018-01-05T19:50:48.721Z,95.10
2018-01-05T19:53:17.034Z,95.30
2018-01-05T19:55:44.527Z,95.60
2018-01-05T19:58:12.059Z,95.20
2018-01-05T20:00:39.555Z,95.10
2018-01-05T20:03:07.037Z,95.20
2018-01-05T20:05:35.329Z,95.30
2018-01-05T20:08:03.611Z,95.30
2018-01-05T20:10:31.149Z,95.20
2018-01-05T20:12:59.425Z,95.50
2018-01-05T20:15:27.729Z,95.30
2018-01-05T20:17:55.219Z,95.60
2018-01-05T20:20:22.719Z,95.30
2018-01-05T20:22:50.993Z,95.40
2018-01-05T20:25:20.000Z,95.50
2018-01-05T20:27:48.245Z,95.50
2018-01-05T20:30:15.755Z,95.50
2018-01-05T20:32:43.309Z,95.60
2018-01-05T20:35:10.837Z,95.70
2018-01-05T20:37:39.102Z,96.10
2018-01-05T20:40:06.829Z,95.80
2018-01-05T20:42:34.367Z,95.80
2018-01-05T20:45:01.883Z,95.90
2018-01-05T20:47:29.402Z,95.90
2018-01-05T20:49:56.944Z,95.80
2018-01-05T20:52:24.451Z,95.80
2018-01-05T20:54:51.950Z,95.70
2018-01-05T20:57:19.542Z,95.70
2018-01-05T20:59:47.038Z,95.50
2018-01-05T21:02:14.577Z,95.40
2018-01-05T21:04:42.108Z,95.30
2018-01-05T21:07:09.602Z,95.20
2018-01-05T21:09:37.117Z,95.10
2018-01-05T21:12:04.611Z,95.20
2018-01-05T21:14:32.159Z,95.30
2018-01-05T21:16:59.671Z,95.30
2018-01-05T21:19:27.181Z,95.40
2018-01-05T21:21:54.655Z,95.40
2018-01-05T21:24:22.139Z,95.40
2018-01-05T21:26:49.704Z,95.20
2018-01-05T21:29:17.311Z,95.10
2018-01-05T21:31:44.839Z,95.10
2018-01-05T21:34:13.079Z,95.10
2018-01-05T21:36:41.314Z,95.20
2018-01-05T21:39:08.805Z,95.20
2018-01-05T21:41:37.066Z,95.10
2018-01-05T21:44:04.623Z,95.10
2018-01-05T21:46:32.133Z,95.00
2018-01-05T21:48:59.652Z,95.10
2018-01-05T21:51:27.977Z,95.10
2018-01-05T21:53:55.515Z,94.90
2018-01-05T21:56:23.009Z,95.00
2018-01-05T21:58:50.554Z,95.10
2018-01-05T22:01:18.789Z,95.10
2018-01-05T22:03:47.069Z,95.10
2018-01-05T22:06:15.318Z,95.10
2018-01-05T22:08:42.842Z,95.10
2018-01-05T22:11:10.334Z,95.10
2018-01-05T22:13:37.837Z,95.10
2018-01-05T22:16:05.327Z,95.10
2018-01-05T22:18:32.782Z,95.20
2018-01-05T22:21:00.314Z,95.30
2018-01-05T22:23:27.802Z,95.40
2018-01-05T22:25:55.323Z,95.30
2018-01-05T22:28:22.823Z,95.30
2018-01-05T22:30:50.335Z,95.20
2018-01-05T22:33:17.841Z,95.30
2018-01-05T22:35:45.319Z,95.30
2018-01-05T22:38:12.825Z,95.10
2018-01-05T22:40:40.322Z,95.10
2018-01-05T22:43:07.799Z,95.00
2018-01-05T22:45:35.299Z,94.70
2018-01-05T22:48:02.789Z,95.10
2018-01-05T22:50:30.276Z,95.10
2018-01-05T22:52:58.528Z,95.20
2018-01-05T22:55:26.018Z,95.30
2018-01-05T22:57:53.527Z,95.30
2018-01-05T23:00:21.110Z,95.40
2018-01-05T23:02:48.604Z,95.50
2018-01-05T23:05:16.100Z,95.30
2018-01-05T23:07:43.577Z,95.20
2018-01-05T23:10:11.094Z,95.30
2018-01-05T23:12:38.578Z,95.40
2018-01-05T23:15:06.061Z,95.30
2018-01-05T23:17:34.374Z,95.00
2018-01-05T23:20:01.851Z,94.90
2018-01-05T23:22:29.358Z,94.80
2018-01-05T23:24:56.834Z,94.70
2018-01-05T23:27:24.321Z,94.60
2018-01-05T23:29:51.815Z,94.60
2018-01-05T23:32:19.299Z,94.70
2018-01-05T23:34:47.576Z,94.60
2018-01-05T23:37:15.847Z,94.70
2018-01-05T23:39:44.146Z,94.70
2018-01-05T23:42:12.383Z,94.70
2018-01-05T23:44:39.844Z,94.60
2018-01-05T23:47:07.351Z,94.60
2018-01-05T23:49:34.865Z,94.30
2018-01-05T23:52:03.150Z,94.60
2018-01-05T23:54:30.653Z,94.60
2018-01-05T23:56:58.134Z,94.50
2018-01-05T23:59:25.662Z,94.40
